In Rescue
 
Open Full Screen Window  High Contrast Mode
Wind Gusting 21 knots
16
October 25, 2021 3:33 PM CDT
Weather Information
Wind Direction
  140 °
Wind Speed
  16 kt (18 mph)
Wind Gust
  21 kt (24 mph)
Altimeter
30.08 in
Visibility
10 SM
Temperature
12° C
54° F
Dewpoint
01° C
34° F
Humidity
47%
1hr Rain Fall
00.00 in.
24hr Rain Fall
00.00 in.
Sky Condition
Clear
VFR

METAR KHCO 252033Z AUTO 14016G21KT 10SM CLR 12/01 A3008 RMK AO2

FAA Disclaimer: The data displayed is for advisory purposes only and is not to be used for flight planning or operations.